Verifier — MLWN4 — position and weather

sailwx.info

Track history (hours):
 
Tides and Currents Weather Stations Pressure Air Temp Water Temp Dewpoint Dewpoint Depression Visibility Wind Speed Wind Dir Waves Ship Positions

Verifier

Last reported at 2015-Nov-04 16:11 UTC. Time now 2016-May-29 17:20 UTC.
Position N 51°30' E 000°48'.
Warning: this ship's position is months out of date.

Length 21 m; draft 5 m.

Type: Port tender. MMSI: 235000932.

Date/timePositionNaut miles runAvg speedWind from/ knotsBaromVisibWave heightAir tempDewpointWater temp
2015-Nov-04 16:11N 51°30' E 000°48'1016.2
2015-Nov-04 15:33N 51°32' E 001°04'1 0.8
2015-Nov-04 14:30N 51°31' E 001°03'0 0.1
2015-Nov-04 13:16N 51°31' E 001°03'0 0.3
2015-Nov-04 12:31N 51°31' E 001°03'1 0.5
2015-Nov-04 11:33N 51°31' E 001°04'1 1.1
2015-Nov-04 10:32N 51°30' E 001°03'9 0.6
2015-Nov-03 18:14N 51°30' E 000°48'1217.2
2015-Nov-03 17:33N 51°30' E 001°07'2 2.1
2015-Nov-03 16:33N 51°29' E 001°10'3 2.7
2015-Nov-03 15:33N 51°29' E 001°06'2 2.2
2015-Nov-03 14:31N 51°29' E 001°09'2 1.6
2015-Nov-03 13:33N 51°30' E 001°07'1 1.0
2015-Nov-03 12:33N 51°29' E 001°08'1 1.0
2015-Nov-03 11:33N 51°29' E 001°07'1 0.9
2015-Nov-03 10:33N 51°29' E 001°08'1313.0
2015-Nov-03 09:33N 51°29' E 000°47'  
2015-Oct-28 14:10N 51°30' E 000°48'1016.2
2015-Oct-28 13:33N 51°31' E 001°04'1 1.2
2015-Oct-28 12:17N 51°32' E 001°06'2 1.4
2015-Oct-28 10:33N 51°32' E 001°02'3 0.1
2015-Oct-26 14:32N 51°31' E 000°58'9 7.3
2015-Oct-26 13:21N 51°34' E 001°11'4 1.5
2015-Oct-26 10:30N 51°32' E 001°04'  
Track history (hours):
 
Tides and Currents Weather Stations Pressure Air Temp Water Temp Dewpoint Dewpoint Depression Visibility Wind Speed Wind Dir Waves Ship Positions

Verifier

Last reported at 2015-Nov-04 16:11 UTC. Time now 2016-May-29 17:20 UTC.
Position N 51°30' E 000°48'.
Warning: this ship's position is months out of date.

Length 21 m; draft 5 m.

Type: Port tender. MMSI: 235000932.

Date/timePositionNaut miles runAvg speedWind from/ knotsBaromVisibWave heightAir tempDewpointWater temp
2015-Nov-04 16:11N 51°30' E 000°48'1016.2
2015-Nov-04 15:33N 51°32' E 001°04'1 0.8
2015-Nov-04 14:30N 51°31' E 001°03'0 0.1
2015-Nov-04 13:16N 51°31' E 001°03'0 0.3
2015-Nov-04 12:31N 51°31' E 001°03'1 0.5
2015-Nov-04 11:33N 51°31' E 001°04'1 1.1
2015-Nov-04 10:32N 51°30' E 001°03'9 0.6
2015-Nov-03 18:14N 51°30' E 000°48'1217.2
2015-Nov-03 17:33N 51°30' E 001°07'2 2.1
2015-Nov-03 16:33N 51°29' E 001°10'3 2.7
2015-Nov-03 15:33N 51°29' E 001°06'2 2.2
2015-Nov-03 14:31N 51°29' E 001°09'2 1.6
2015-Nov-03 13:33N 51°30' E 001°07'1 1.0
2015-Nov-03 12:33N 51°29' E 001°08'1 1.0
2015-Nov-03 11:33N 51°29' E 001°07'1 0.9
2015-Nov-03 10:33N 51°29' E 001°08'1313.0
2015-Nov-03 09:33N 51°29' E 000°47'  
2015-Oct-28 14:10N 51°30' E 000°48'1016.2
2015-Oct-28 13:33N 51°31' E 001°04'1 1.2
2015-Oct-28 12:17N 51°32' E 001°06'2 1.4
2015-Oct-28 10:33N 51°32' E 001°02'3 0.1
2015-Oct-26 14:32N 51°31' E 000°58'9 7.3
2015-Oct-26 13:21N 51°34' E 001°11'4 1.5
2015-Oct-26 10:30N 51°32' E 001°04'  

Dump ship's entire track history